sensor_id;sensor_type;location;lat;lon;timestamp;P1;durP1;ratioP1;P2;durP2;ratioP2
55989;SDS011;41875;55.806;38.082;2023-06-24T00:00:09;41.25;;;24.63;;
55989;SDS011;41875;55.806;38.082;2023-06-24T00:02:45;35.45;;;22.42;;
55989;SDS011;41875;55.806;38.082;2023-06-24T00:05:13;32.55;;;20.42;;
55989;SDS011;41875;55.806;38.082;2023-06-24T00:07:43;34.58;;;21.05;;
55989;SDS011;41875;55.806;38.082;2023-06-24T00:10:12;27.52;;;16.75;;
55989;SDS011;41875;55.806;38.082;2023-06-24T00:12:44;26.42;;;16.13;;
55989;SDS011;41875;55.806;38.082;2023-06-24T00:15:13;28.98;;;15.55;;
55989;SDS011;41875;55.806;38.082;2023-06-24T00:17:42;21.38;;;13.45;;
55989;SDS011;41875;55.806;38.082;2023-06-24T00:20:12;20.73;;;13.82;;
55989;SDS011;41875;55.806;38.082;2023-06-24T00:22:41;19.45;;;12.90;;
55989;SDS011;41875;55.806;38.082;2023-06-24T00:25:11;19.45;;;13.40;;
55989;SDS011;41875;55.806;38.082;2023-06-24T00:27:40;17.95;;;11.73;;
55989;SDS011;41875;55.806;38.082;2023-06-24T00:30:10;18.13;;;12.15;;
55989;SDS011;41875;55.806;38.082;2023-06-24T00:32:41;19.92;;;12.43;;
55989;SDS011;41875;55.806;38.082;2023-06-24T00:35:11;18.05;;;10.80;;
55989;SDS011;41875;55.806;38.082;2023-06-24T00:37:41;18.08;;;11.38;;
55989;SDS011;41875;55.806;38.082;2023-06-24T00:40:12;15.93;;;10.52;;
55989;SDS011;41875;55.806;38.082;2023-06-24T00:42:42;16.92;;;11.15;;
55989;SDS011;41875;55.806;38.082;2023-06-24T00:45:12;15.95;;;10.88;;
55989;SDS011;41875;55.806;38.082;2023-06-24T00:47:44;17.63;;;11.77;;
55989;SDS011;41875;55.806;38.082;2023-06-24T00:50:15;15.43;;;10.82;;
55989;SDS011;41875;55.806;38.082;2023-06-24T00:52:44;16.38;;;10.80;;
55989;SDS011;41875;55.806;38.082;2023-06-24T00:55:14;15.93;;;9.38;;
55989;SDS011;41875;55.806;38.082;2023-06-24T00:57:44;14.98;;;9.27;;
55989;SDS011;41875;55.806;38.082;2023-06-24T01:00:17;16.48;;;9.35;;
55989;SDS011;41875;55.806;38.082;2023-06-24T01:02:47;13.75;;;8.30;;
55989;SDS011;41875;55.806;38.082;2023-06-24T01:05:18;14.65;;;9.55;;
55989;SDS011;41875;55.806;38.082;2023-06-24T01:07:50;13.18;;;8.23;;
55989;SDS011;41875;55.806;38.082;2023-06-24T01:10:23;12.10;;;6.65;;
55989;SDS011;41875;55.806;38.082;2023-06-24T01:12:53;10.38;;;6.05;;
55989;SDS011;41875;55.806;38.082;2023-06-24T01:15:22;11.57;;;6.20;;
55989;SDS011;41875;55.806;38.082;2023-06-24T01:17:56;11.50;;;6.68;;
55989;SDS011;41875;55.806;38.082;2023-06-24T01:20:33;12.40;;;6.25;;
55989;SDS011;41875;55.806;38.082;2023-06-24T01:26:32;9.57;;;4.70;;
55989;SDS011;41875;55.806;38.082;2023-06-24T01:32:23;5.93;;;3.17;;
55989;SDS011;41875;55.806;38.082;2023-06-24T01:34:58;5.30;;;2.70;;
55989;SDS011;41875;55.806;38.082;2023-06-24T01:37:31;5.05;;;2.58;;
55989;SDS011;41875;55.806;38.082;2023-06-24T01:40:05;5.32;;;2.47;;
55989;SDS011;41875;55.806;38.082;2023-06-24T01:42:38;4.53;;;2.72;;
55989;SDS011;41875;55.806;38.082;2023-06-24T01:45:10;7.07;;;2.88;;
55989;SDS011;41875;55.806;38.082;2023-06-24T01:47:44;5.68;;;2.28;;
55989;SDS011;41875;55.806;38.082;2023-06-24T01:50:16;4.90;;;2.30;;
55989;SDS011;41875;55.806;38.082;2023-06-24T01:52:50;4.70;;;1.92;;
55989;SDS011;41875;55.806;38.082;2023-06-24T01:55:21;3.15;;;1.80;;
55989;SDS011;41875;55.806;38.082;2023-06-24T01:57:52;3.00;;;1.75;;
55989;SDS011;41875;55.806;38.082;2023-06-24T02:00:24;4.07;;;2.03;;
55989;SDS011;41875;55.806;38.082;2023-06-24T02:02:55;3.42;;;1.85;;
55989;SDS011;41875;55.806;38.082;2023-06-24T02:05:25;2.65;;;1.67;;
55989;SDS011;41875;55.806;38.082;2023-06-24T02:07:54;3.17;;;1.42;;
55989;SDS011;41875;55.806;38.082;2023-06-24T02:10:24;4.30;;;1.23;;
55989;SDS011;41875;55.806;38.082;2023-06-24T02:13:01;1.92;;;1.38;;
55989;SDS011;41875;55.806;38.082;2023-06-24T02:15:30;5.22;;;2.10;;
55989;SDS011;41875;55.806;38.082;2023-06-24T02:18:06;5.28;;;1.90;;
55989;SDS011;41875;55.806;38.082;2023-06-24T02:20:36;2.17;;;1.27;;
55989;SDS011;41875;55.806;38.082;2023-06-24T02:23:10;2.28;;;1.10;;
55989;SDS011;41875;55.806;38.082;2023-06-24T02:25:40;2.10;;;1.30;;
55989;SDS011;41875;55.806;38.082;2023-06-24T02:28:11;1.83;;;1.20;;
55989;SDS011;41875;55.806;38.082;2023-06-24T02:30:41;1.85;;;1.20;;
55989;SDS011;41875;55.806;38.082;2023-06-24T02:33:12;2.13;;;1.20;;
55989;SDS011;41875;55.806;38.082;2023-06-24T02:35:42;1.50;;;1.00;;
55989;SDS011;41875;55.806;38.082;2023-06-24T02:38:12;1.90;;;1.20;;
55989;SDS011;41875;55.806;38.082;2023-06-24T02:43:11;3.75;;;1.20;;
55989;SDS011;41875;55.806;38.082;2023-06-24T02:45:40;1.65;;;1.02;;
55989;SDS011;41875;55.806;38.082;2023-06-24T02:48:09;1.50;;;1.10;;
55989;SDS011;41875;55.806;38.082;2023-06-24T02:50:41;1.70;;;0.95;;
55989;SDS011;41875;55.806;38.082;2023-06-24T02:53:11;1.52;;;1.00;;
55989;SDS011;41875;55.806;38.082;2023-06-24T02:55:41;0.80;;;0.80;;
55989;SDS011;41875;55.806;38.082;2023-06-24T02:58:11;1.10;;;0.90;;
55989;SDS011;41875;55.806;38.082;2023-06-24T03:00:58;2.08;;;0.93;;
55989;SDS011;41875;55.806;38.082;2023-06-24T03:03:46;3.70;;;1.10;;
55989;SDS011;41875;55.806;38.082;2023-06-24T03:06:17;1.20;;;0.90;;
55989;SDS011;41875;55.806;38.082;2023-06-24T03:08:47;2.05;;;0.80;;
55989;SDS011;41875;55.806;38.082;2023-06-24T03:11:19;2.72;;;0.90;;
55989;SDS011;41875;55.806;38.082;2023-06-24T03:16:19;2.38;;;1.00;;
55989;SDS011;41875;55.806;38.082;2023-06-24T03:19:16;1.58;;;0.95;;
55989;SDS011;41875;55.806;38.082;2023-06-24T03:21:44;2.55;;;0.90;;
55989;SDS011;41875;55.806;38.082;2023-06-24T03:24:15;1.88;;;0.88;;
55989;SDS011;41875;55.806;38.082;2023-06-24T03:26:47;2.80;;;0.80;;
55989;SDS011;41875;55.806;38.082;2023-06-24T03:29:18;1.27;;;0.80;;
55989;SDS011;41875;55.806;38.082;2023-06-24T03:31:59;3.00;;;0.80;;
55989;SDS011;41875;55.806;38.082;2023-06-24T03:34:31;1.60;;;0.77;;
55989;SDS011;41875;55.806;38.082;2023-06-24T03:36:59;1.60;;;0.90;;
55989;SDS011;41875;55.806;38.082;2023-06-24T03:39:33;1.27;;;0.82;;
55989;SDS011;41875;55.806;38.082;2023-06-24T03:42:01;1.08;;;0.80;;
55989;SDS011;41875;55.806;38.082;2023-06-24T03:44:30;0.80;;;0.70;;
55989;SDS011;41875;55.806;38.082;2023-06-24T03:46:58;0.93;;;0.82;;
55989;SDS011;41875;55.806;38.082;2023-06-24T03:49:27;4.30;;;0.90;;
55989;SDS011;41875;55.806;38.082;2023-06-24T03:51:57;1.80;;;0.80;;
55989;SDS011;41875;55.806;38.082;2023-06-24T03:54:26;1.40;;;0.70;;
55989;SDS011;41875;55.806;38.082;2023-06-24T03:56:54;1.08;;;0.68;;
55989;SDS011;41875;55.806;38.082;2023-06-24T03:59:23;0.95;;;0.70;;
55989;SDS011;41875;55.806;38.082;2023-06-24T04:01:54;1.30;;;0.93;;
55989;SDS011;41875;55.806;38.082;2023-06-24T04:04:23;2.35;;;0.70;;
55989;SDS011;41875;55.806;38.082;2023-06-24T04:06:52;0.70;;;0.70;;
55989;SDS011;41875;55.806;38.082;2023-06-24T04:09:22;1.23;;;0.80;;
55989;SDS011;41875;55.806;38.082;2023-06-24T04:11:52;1.73;;;0.77;;
55989;SDS011;41875;55.806;38.082;2023-06-24T04:14:21;1.50;;;0.80;;
55989;SDS011;41875;55.806;38.082;2023-06-24T04:16:49;2.70;;;0.60;;
55989;SDS011;41875;55.806;38.082;2023-06-24T04:19:18;1.10;;;0.70;;
55989;SDS011;41875;55.806;38.082;2023-06-24T04:21:46;1.30;;;0.90;;
55989;SDS011;41875;55.806;38.082;2023-06-24T04:24:15;1.30;;;0.90;;
55989;SDS011;41875;55.806;38.082;2023-06-24T04:26:44;4.82;;;0.80;;
55989;SDS011;41875;55.806;38.082;2023-06-24T04:29:13;1.13;;;0.93;;
55989;SDS011;41875;55.806;38.082;2023-06-24T04:31:41;1.35;;;0.70;;
55989;SDS011;41875;55.806;38.082;2023-06-24T04:36:38;2.05;;;0.80;;
55989;SDS011;41875;55.806;38.082;2023-06-24T04:39:10;3.25;;;1.00;;
55989;SDS011;41875;55.806;38.082;2023-06-24T04:41:39;1.30;;;1.00;;
55989;SDS011;41875;55.806;38.082;2023-06-24T04:44:09;1.35;;;0.95;;
55989;SDS011;41875;55.806;38.082;2023-06-24T04:46:38;1.48;;;0.90;;
55989;SDS011;41875;55.806;38.082;2023-06-24T04:49:07;1.40;;;1.02;;
55989;SDS011;41875;55.806;38.082;2023-06-24T04:51:35;1.17;;;0.90;;
55989;SDS011;41875;55.806;38.082;2023-06-24T04:54:04;2.47;;;0.88;;
55989;SDS011;41875;55.806;38.082;2023-06-24T04:56:34;1.73;;;0.80;;
55989;SDS011;41875;55.806;38.082;2023-06-24T05:01:32;1.63;;;1.00;;
55989;SDS011;41875;55.806;38.082;2023-06-24T05:04:01;1.42;;;0.93;;
55989;SDS011;41875;55.806;38.082;2023-06-24T05:06:29;1.38;;;0.95;;
55989;SDS011;41875;55.806;38.082;2023-06-24T05:11:26;2.20;;;1.00;;
55989;SDS011;41875;55.806;38.082;2023-06-24T05:13:57;1.90;;;0.95;;
55989;SDS011;41875;55.806;38.082;2023-06-24T05:16:26;2.30;;;1.02;;
55989;SDS011;41875;55.806;38.082;2023-06-24T05:18:56;3.50;;;1.10;;
55989;SDS011;41875;55.806;38.082;2023-06-24T05:21:24;4.43;;;1.05;;
55989;SDS011;41875;55.806;38.082;2023-06-24T05:23:53;1.45;;;0.98;;
55989;SDS011;41875;55.806;38.082;2023-06-24T05:26:21;1.58;;;0.70;;
55989;SDS011;41875;55.806;38.082;2023-06-24T05:28:49;1.50;;;0.90;;
55989;SDS011;41875;55.806;38.082;2023-06-24T05:31:18;3.58;;;0.93;;
55989;SDS011;41875;55.806;38.082;2023-06-24T05:33:46;2.05;;;1.00;;
55989;SDS011;41875;55.806;38.082;2023-06-24T05:36:16;0.95;;;0.70;;
55989;SDS011;41875;55.806;38.082;2023-06-24T05:38:45;1.02;;;0.90;;
55989;SDS011;41875;55.806;38.082;2023-06-24T05:41:15;1.42;;;1.00;;
55989;SDS011;41875;55.806;38.082;2023-06-24T05:43:43;2.97;;;0.85;;
55989;SDS011;41875;55.806;38.082;2023-06-24T05:46:12;3.58;;;1.10;;
55989;SDS011;41875;55.806;38.082;2023-06-24T05:48:40;1.98;;;1.00;;
55989;SDS011;41875;55.806;38.082;2023-06-24T05:51:09;2.35;;;1.00;;
55989;SDS011;41875;55.806;38.082;2023-06-24T05:53:38;1.85;;;0.95;;
55989;SDS011;41875;55.806;38.082;2023-06-24T05:56:08;1.10;;;0.60;;
55989;SDS011;41875;55.806;38.082;2023-06-24T05:58:36;1.33;;;0.88;;
55989;SDS011;41875;55.806;38.082;2023-06-24T06:01:04;1.42;;;0.77;;
55989;SDS011;41875;55.806;38.082;2023-06-24T06:03:33;2.25;;;1.15;;
55989;SDS011;41875;55.806;38.082;2023-06-24T06:06:01;1.58;;;0.77;;
55989;SDS011;41875;55.806;38.082;2023-06-24T06:08:30;1.80;;;0.90;;
55989;SDS011;41875;55.806;38.082;2023-06-24T06:11:00;1.85;;;1.00;;
55989;SDS011;41875;55.806;38.082;2023-06-24T06:13:29;2.22;;;1.10;;
55989;SDS011;41875;55.806;38.082;2023-06-24T06:15:58;2.65;;;1.00;;
55989;SDS011;41875;55.806;38.082;2023-06-24T06:18:26;2.25;;;0.98;;
55989;SDS011;41875;55.806;38.082;2023-06-24T06:20:55;2.35;;;1.00;;
55989;SDS011;41875;55.806;38.082;2023-06-24T06:23:23;3.08;;;1.10;;
55989;SDS011;41875;55.806;38.082;2023-06-24T06:25:52;3.03;;;1.30;;
55989;SDS011;41875;55.806;38.082;2023-06-24T06:28:22;2.75;;;1.02;;
55989;SDS011;41875;55.806;38.082;2023-06-24T06:30:51;1.63;;;0.73;;
55989;SDS011;41875;55.806;38.082;2023-06-24T06:33:19;2.75;;;1.20;;
55989;SDS011;41875;55.806;38.082;2023-06-24T06:35:48;5.70;;;3.08;;
55989;SDS011;41875;55.806;38.082;2023-06-24T06:38:16;3.72;;;1.55;;
55989;SDS011;41875;55.806;38.082;2023-06-24T06:40:44;1.85;;;1.17;;
55989;SDS011;41875;55.806;38.082;2023-06-24T06:43:13;1.98;;;1.08;;
55989;SDS011;41875;55.806;38.082;2023-06-24T06:45:43;3.05;;;1.40;;
55989;SDS011;41875;55.806;38.082;2023-06-24T06:48:11;1.67;;;0.90;;
55989;SDS011;41875;55.806;38.082;2023-06-24T06:50:40;3.65;;;1.48;;
55989;SDS011;41875;55.806;38.082;2023-06-24T06:53:08;3.83;;;1.90;;
55989;SDS011;41875;55.806;38.082;2023-06-24T06:55:37;3.25;;;1.17;;
55989;SDS011;41875;55.806;38.082;2023-06-24T06:58:06;3.97;;;1.33;;
55989;SDS011;41875;55.806;38.082;2023-06-24T07:00:34;2.53;;;1.30;;
55989;SDS011;41875;55.806;38.082;2023-06-24T07:03:04;3.88;;;1.55;;
55989;SDS011;41875;55.806;38.082;2023-06-24T07:05:32;3.10;;;1.17;;
55989;SDS011;41875;55.806;38.082;2023-06-24T07:08:05;2.88;;;1.38;;
55989;SDS011;41875;55.806;38.082;2023-06-24T07:10:34;3.42;;;1.40;;
55989;SDS011;41875;55.806;38.082;2023-06-24T07:13:02;4.43;;;1.50;;
55989;SDS011;41875;55.806;38.082;2023-06-24T07:15:30;4.20;;;1.05;;
55989;SDS011;41875;55.806;38.082;2023-06-24T07:17:59;1.77;;;1.10;;
55989;SDS011;41875;55.806;38.082;2023-06-24T07:20:30;4.38;;;1.30;;
55989;SDS011;41875;55.806;38.082;2023-06-24T07:22:58;1.60;;;0.93;;
55989;SDS011;41875;55.806;38.082;2023-06-24T07:27:55;2.13;;;1.10;;
55989;SDS011;41875;55.806;38.082;2023-06-24T07:32:52;1.70;;;1.00;;
55989;SDS011;41875;55.806;38.082;2023-06-24T07:35:21;3.08;;;1.33;;
55989;SDS011;41875;55.806;38.082;2023-06-24T07:37:51;2.40;;;1.33;;
55989;SDS011;41875;55.806;38.082;2023-06-24T07:40:20;2.55;;;1.25;;
55989;SDS011;41875;55.806;38.082;2023-06-24T07:42:48;2.72;;;1.20;;
55989;SDS011;41875;55.806;38.082;2023-06-24T07:45:17;3.28;;;1.30;;
55989;SDS011;41875;55.806;38.082;2023-06-24T07:47:45;4.70;;;1.88;;
55989;SDS011;41875;55.806;38.082;2023-06-24T07:52:42;3.30;;;1.20;;
55989;SDS011;41875;55.806;38.082;2023-06-24T07:55:12;2.05;;;1.10;;
55989;SDS011;41875;55.806;38.082;2023-06-24T07:57:44;2.75;;;1.00;;
55989;SDS011;41875;55.806;38.082;2023-06-24T08:00:13;6.90;;;1.95;;
55989;SDS011;41875;55.806;38.082;2023-06-24T08:02:43;4.97;;;1.30;;
55989;SDS011;41875;55.806;38.082;2023-06-24T08:05:12;2.95;;;1.30;;
55989;SDS011;41875;55.806;38.082;2023-06-24T08:07:41;4.00;;;1.40;;
55989;SDS011;41875;55.806;38.082;2023-06-24T08:10:09;1.55;;;1.08;;
55989;SDS011;41875;55.806;38.082;2023-06-24T08:12:39;2.30;;;1.02;;
55989;SDS011;41875;55.806;38.082;2023-06-24T08:15:08;3.60;;;1.00;;
55989;SDS011;41875;55.806;38.082;2023-06-24T08:17:37;1.85;;;1.10;;
55989;SDS011;41875;55.806;38.082;2023-06-24T08:20:06;1.27;;;0.90;;
55989;SDS011;41875;55.806;38.082;2023-06-24T08:22:35;1.77;;;1.00;;
55989;SDS011;41875;55.806;38.082;2023-06-24T08:25:03;3.03;;;1.33;;
55989;SDS011;41875;55.806;38.082;2023-06-24T08:27:33;1.85;;;1.10;;
55989;SDS011;41875;55.806;38.082;2023-06-24T08:30:03;2.05;;;1.05;;
55989;SDS011;41875;55.806;38.082;2023-06-24T08:32:32;4.40;;;1.75;;
55989;SDS011;41875;55.806;38.082;2023-06-24T08:35:01;1.95;;;1.30;;
55989;SDS011;41875;55.806;38.082;2023-06-24T08:37:29;4.18;;;1.30;;
55989;SDS011;41875;55.806;38.082;2023-06-24T08:39:58;2.60;;;1.33;;
55989;SDS011;41875;55.806;38.082;2023-06-24T08:42:26;3.38;;;1.40;;
55989;SDS011;41875;55.806;38.082;2023-06-24T08:44:55;4.15;;;1.52;;
55989;SDS011;41875;55.806;38.082;2023-06-24T08:49:43;3.85;;;1.55;;
55989;SDS011;41875;55.806;38.082;2023-06-24T08:52:15;2.70;;;1.70;;
55989;SDS011;41875;55.806;38.082;2023-06-24T08:54:45;4.13;;;1.70;;
55989;SDS011;41875;55.806;38.082;2023-06-24T08:57:16;4.30;;;2.40;;
55989;SDS011;41875;55.806;38.082;2023-06-24T08:59:45;6.07;;;2.60;;
55989;SDS011;41875;55.806;38.082;2023-06-24T09:02:14;3.22;;;2.13;;
55989;SDS011;41875;55.806;38.082;2023-06-24T09:04:44;5.05;;;2.25;;
55989;SDS011;41875;55.806;38.082;2023-06-24T09:07:12;3.47;;;2.00;;
55989;SDS011;41875;55.806;38.082;2023-06-24T09:09:44;7.35;;;2.97;;
55989;SDS011;41875;55.806;38.082;2023-06-24T09:12:14;5.70;;;3.17;;
55989;SDS011;41875;55.806;38.082;2023-06-24T09:14:47;7.68;;;3.58;;
55989;SDS011;41875;55.806;38.082;2023-06-24T09:17:18;6.65;;;3.45;;
55989;SDS011;41875;55.806;38.082;2023-06-24T09:19:51;7.60;;;3.60;;
55989;SDS011;41875;55.806;38.082;2023-06-24T09:22:21;5.70;;;3.10;;
55989;SDS011;41875;55.806;38.082;2023-06-24T09:24:52;8.32;;;3.80;;
55989;SDS011;41875;55.806;38.082;2023-06-24T09:27:22;10.35;;;5.93;;
55989;SDS011;41875;55.806;38.082;2023-06-24T09:29:51;6.22;;;4.05;;
55989;SDS011;41875;55.806;38.082;2023-06-24T09:32:20;5.93;;;3.25;;
55989;SDS011;41875;55.806;38.082;2023-06-24T09:34:53;5.47;;;3.35;;
55989;SDS011;41875;55.806;38.082;2023-06-24T09:37:22;4.55;;;2.92;;
55989;SDS011;41875;55.806;38.082;2023-06-24T09:39:58;7.35;;;3.83;;
55989;SDS011;41875;55.806;38.082;2023-06-24T09:42:29;5.55;;;2.90;;
55989;SDS011;41875;55.806;38.082;2023-06-24T09:44:58;5.15;;;2.80;;
55989;SDS011;41875;55.806;38.082;2023-06-24T09:47:32;4.47;;;2.42;;
55989;SDS011;41875;55.806;38.082;2023-06-24T09:50:05;6.03;;;3.60;;
55989;SDS011;41875;55.806;38.082;2023-06-24T09:52:37;5.03;;;3.20;;
55989;SDS011;41875;55.806;38.082;2023-06-24T09:55:07;6.78;;;4.15;;
55989;SDS011;41875;55.806;38.082;2023-06-24T09:57:38;6.18;;;3.15;;
55989;SDS011;41875;55.806;38.082;2023-06-24T10:00:10;7.88;;;4.97;;
55989;SDS011;41875;55.806;38.082;2023-06-24T10:02:42;5.60;;;3.00;;
55989;SDS011;41875;55.806;38.082;2023-06-24T10:05:14;7.32;;;3.78;;
55989;SDS011;41875;55.806;38.082;2023-06-24T10:07:44;6.18;;;2.95;;
55989;SDS011;41875;55.806;38.082;2023-06-24T10:10:14;5.85;;;2.72;;
55989;SDS011;41875;55.806;38.082;2023-06-24T10:12:44;8.35;;;3.20;;
55989;SDS011;41875;55.806;38.082;2023-06-24T10:15:13;3.70;;;2.17;;
55989;SDS011;41875;55.806;38.082;2023-06-24T10:17:44;5.80;;;3.33;;
55989;SDS011;41875;55.806;38.082;2023-06-24T10:20:19;5.43;;;3.00;;
55989;SDS011;41875;55.806;38.082;2023-06-24T10:22:53;5.10;;;3.25;;
55989;SDS011;41875;55.806;38.082;2023-06-24T10:25:22;6.32;;;3.10;;
55989;SDS011;41875;55.806;38.082;2023-06-24T10:27:53;5.88;;;2.80;;
55989;SDS011;41875;55.806;38.082;2023-06-24T10:30:22;5.55;;;2.72;;
55989;SDS011;41875;55.806;38.082;2023-06-24T10:32:58;5.28;;;3.08;;
55989;SDS011;41875;55.806;38.082;2023-06-24T10:35:29;5.75;;;3.15;;
55989;SDS011;41875;55.806;38.082;2023-06-24T10:38:00;7.82;;;3.58;;
55989;SDS011;41875;55.806;38.082;2023-06-24T10:40:35;5.03;;;2.90;;
55989;SDS011;41875;55.806;38.082;2023-06-24T10:45:56;5.05;;;3.10;;
55989;SDS011;41875;55.806;38.082;2023-06-24T10:48:27;5.63;;;3.15;;
55989;SDS011;41875;55.806;38.082;2023-06-24T10:50:58;5.35;;;3.25;;
55989;SDS011;41875;55.806;38.082;2023-06-24T10:53:27;5.13;;;2.80;;
55989;SDS011;41875;55.806;38.082;2023-06-24T10:55:58;4.75;;;2.85;;
55989;SDS011;41875;55.806;38.082;2023-06-24T10:58:28;5.18;;;2.80;;
55989;SDS011;41875;55.806;38.082;2023-06-24T11:01:06;4.80;;;2.70;;
55989;SDS011;41875;55.806;38.082;2023-06-24T11:03:36;6.53;;;3.25;;
55989;SDS011;41875;55.806;38.082;2023-06-24T11:06:09;6.65;;;3.22;;
55989;SDS011;41875;55.806;38.082;2023-06-24T11:08:43;6.25;;;3.45;;
55989;SDS011;41875;55.806;38.082;2023-06-24T11:11:18;6.72;;;3.42;;
55989;SDS011;41875;55.806;38.082;2023-06-24T11:13:48;6.75;;;3.92;;
55989;SDS011;41875;55.806;38.082;2023-06-24T11:16:20;6.63;;;3.55;;
55989;SDS011;41875;55.806;38.082;2023-06-24T11:18:52;7.20;;;4.75;;
55989;SDS011;41875;55.806;38.082;2023-06-24T11:21:29;8.45;;;4.20;;
55989;SDS011;41875;55.806;38.082;2023-06-24T11:24:00;7.47;;;3.58;;
55989;SDS011;41875;55.806;38.082;2023-06-24T11:26:32;6.32;;;3.35;;
55989;SDS011;41875;55.806;38.082;2023-06-24T11:31:29;6.13;;;2.97;;
55989;SDS011;41875;55.806;38.082;2023-06-24T11:34:01;7.40;;;3.30;;
55989;SDS011;41875;55.806;38.082;2023-06-24T11:36:34;8.82;;;4.40;;
55989;SDS011;41875;55.806;38.082;2023-06-24T11:39:04;8.00;;;4.45;;
55989;SDS011;41875;55.806;38.082;2023-06-24T11:41:36;8.70;;;4.85;;
55989;SDS011;41875;55.806;38.082;2023-06-24T11:44:06;8.00;;;4.93;;
55989;SDS011;41875;55.806;38.082;2023-06-24T11:46:34;7.70;;;4.07;;
55989;SDS011;41875;55.806;38.082;2023-06-24T11:49:03;9.30;;;4.97;;
55989;SDS011;41875;55.806;38.082;2023-06-24T11:51:37;8.10;;;3.95;;
55989;SDS011;41875;55.806;38.082;2023-06-24T11:54:18;8.63;;;4.70;;
55989;SDS011;41875;55.806;38.082;2023-06-24T11:56:49;9.63;;;5.78;;
55989;SDS011;41875;55.806;38.082;2023-06-24T11:59:20;7.53;;;4.10;;
55989;SDS011;41875;55.806;38.082;2023-06-24T12:01:53;7.70;;;4.70;;
55989;SDS011;41875;55.806;38.082;2023-06-24T12:04:27;9.07;;;5.53;;
55989;SDS011;41875;55.806;38.082;2023-06-24T12:07:00;9.15;;;5.50;;
55989;SDS011;41875;55.806;38.082;2023-06-24T12:09:28;9.35;;;4.25;;
55989;SDS011;41875;55.806;38.082;2023-06-24T12:11:57;7.53;;;4.25;;
55989;SDS011;41875;55.806;38.082;2023-06-24T12:14:25;7.82;;;3.67;;
55989;SDS011;41875;55.806;38.082;2023-06-24T12:16:54;6.57;;;4.05;;
55989;SDS011;41875;55.806;38.082;2023-06-24T12:19:22;8.55;;;4.45;;
55989;SDS011;41875;55.806;38.082;2023-06-24T12:21:51;6.85;;;3.40;;
55989;SDS011;41875;55.806;38.082;2023-06-24T12:24:21;8.10;;;4.40;;
55989;SDS011;41875;55.806;38.082;2023-06-24T12:26:50;7.95;;;3.72;;
55989;SDS011;41875;55.806;38.082;2023-06-24T12:29:19;7.03;;;3.60;;
55989;SDS011;41875;55.806;38.082;2023-06-24T12:31:47;6.97;;;3.83;;
55989;SDS011;41875;55.806;38.082;2023-06-24T12:34:16;6.70;;;3.92;;
55989;SDS011;41875;55.806;38.082;2023-06-24T12:36:44;6.03;;;2.75;;
55989;SDS011;41875;55.806;38.082;2023-06-24T12:39:13;5.95;;;3.28;;
55989;SDS011;41875;55.806;38.082;2023-06-24T12:41:47;6.00;;;3.63;;
55989;SDS011;41875;55.806;38.082;2023-06-24T12:44:16;6.35;;;3.45;;
55989;SDS011;41875;55.806;38.082;2023-06-24T12:46:44;6.90;;;3.88;;
55989;SDS011;41875;55.806;38.082;2023-06-24T12:49:13;6.65;;;3.25;;
55989;SDS011;41875;55.806;38.082;2023-06-24T12:51:41;9.93;;;3.63;;
55989;SDS011;41875;55.806;38.082;2023-06-24T12:54:10;6.40;;;3.58;;
55989;SDS011;41875;55.806;38.082;2023-06-24T12:56:39;8.23;;;4.15;;
55989;SDS011;41875;55.806;38.082;2023-06-24T12:59:09;10.18;;;4.60;;
55989;SDS011;41875;55.806;38.082;2023-06-24T13:01:37;8.73;;;3.90;;
55989;SDS011;41875;55.806;38.082;2023-06-24T13:04:06;6.53;;;3.30;;
55989;SDS011;41875;55.806;38.082;2023-06-24T13:06:34;6.60;;;3.40;;
55989;SDS011;41875;55.806;38.082;2023-06-24T13:09:03;6.53;;;3.67;;
55989;SDS011;41875;55.806;38.082;2023-06-24T13:11:31;8.90;;;3.47;;
55989;SDS011;41875;55.806;38.082;2023-06-24T13:14:00;8.35;;;3.30;;
55989;SDS011;41875;55.806;38.082;2023-06-24T13:16:30;6.50;;;3.60;;
55989;SDS011;41875;55.806;38.082;2023-06-24T13:18:59;6.43;;;2.92;;
55989;SDS011;41875;55.806;38.082;2023-06-24T13:24:22;6.45;;;3.88;;
55989;SDS011;41875;55.806;38.082;2023-06-24T13:26:52;5.68;;;3.15;;
55989;SDS011;41875;55.806;38.082;2023-06-24T13:29:20;7.53;;;3.20;;
55989;SDS011;41875;55.806;38.082;2023-06-24T13:31:50;5.45;;;2.70;;
55989;SDS011;41875;55.806;38.082;2023-06-24T13:34:19;7.88;;;3.65;;
55989;SDS011;41875;55.806;38.082;2023-06-24T13:36:47;6.20;;;3.47;;
55989;SDS011;41875;55.806;38.082;2023-06-24T13:39:16;5.88;;;3.33;;
55989;SDS011;41875;55.806;38.082;2023-06-24T13:41:45;7.30;;;3.17;;
55989;SDS011;41875;55.806;38.082;2023-06-24T13:44:13;6.00;;;3.10;;
55989;SDS011;41875;55.806;38.082;2023-06-24T13:46:42;6.75;;;3.30;;
55989;SDS011;41875;55.806;38.082;2023-06-24T13:49:13;6.05;;;2.85;;
55989;SDS011;41875;55.806;38.082;2023-06-24T13:51:42;6.53;;;3.08;;
55989;SDS011;41875;55.806;38.082;2023-06-24T13:56:39;4.82;;;2.42;;
55989;SDS011;41875;55.806;38.082;2023-06-24T13:59:07;5.60;;;2.95;;
55989;SDS011;41875;55.806;38.082;2023-06-24T14:01:37;6.60;;;3.20;;
55989;SDS011;41875;55.806;38.082;2023-06-24T14:04:05;6.30;;;3.60;;
55989;SDS011;41875;55.806;38.082;2023-06-24T14:06:35;6.20;;;3.22;;
55989;SDS011;41875;55.806;38.082;2023-06-24T14:09:04;7.25;;;2.67;;
55989;SDS011;41875;55.806;38.082;2023-06-24T14:11:32;7.68;;;3.28;;
55989;SDS011;41875;55.806;38.082;2023-06-24T14:14:01;7.15;;;3.42;;
55989;SDS011;41875;55.806;38.082;2023-06-24T14:16:30;7.15;;;3.50;;
55989;SDS011;41875;55.806;38.082;2023-06-24T14:18:58;6.72;;;3.38;;
55989;SDS011;41875;55.806;38.082;2023-06-24T14:21:27;5.97;;;3.30;;
55989;SDS011;41875;55.806;38.082;2023-06-24T14:23:59;6.07;;;3.60;;
55989;SDS011;41875;55.806;38.082;2023-06-24T14:26:41;5.07;;;2.92;;
55989;SDS011;41875;55.806;38.082;2023-06-24T14:31:39;6.45;;;2.80;;
55989;SDS011;41875;55.806;38.082;2023-06-24T14:34:07;6.55;;;3.50;;
55989;SDS011;41875;55.806;38.082;2023-06-24T14:36:36;7.68;;;3.47;;
55989;SDS011;41875;55.806;38.082;2023-06-24T14:39:06;6.13;;;3.30;;
55989;SDS011;41875;55.806;38.082;2023-06-24T14:41:34;5.80;;;3.22;;
55989;SDS011;41875;55.806;38.082;2023-06-24T14:44:03;7.82;;;3.70;;
55989;SDS011;41875;55.806;38.082;2023-06-24T14:49:00;6.18;;;3.40;;
55989;SDS011;41875;55.806;38.082;2023-06-24T14:51:28;6.30;;;3.45;;
55989;SDS011;41875;55.806;38.082;2023-06-24T14:53:57;5.85;;;3.03;;
55989;SDS011;41875;55.806;38.082;2023-06-24T14:56:27;10.52;;;3.70;;
55989;SDS011;41875;55.806;38.082;2023-06-24T14:58:56;6.22;;;3.40;;
55989;SDS011;41875;55.806;38.082;2023-06-24T15:01:25;7.07;;;3.05;;
55989;SDS011;41875;55.806;38.082;2023-06-24T15:03:53;5.82;;;3.58;;
55989;SDS011;41875;55.806;38.082;2023-06-24T15:06:22;7.10;;;3.33;;
55989;SDS011;41875;55.806;38.082;2023-06-24T15:08:51;6.47;;;3.25;;
55989;SDS011;41875;55.806;38.082;2023-06-24T15:11:19;7.88;;;3.33;;
55989;SDS011;41875;55.806;38.082;2023-06-24T15:16:17;6.53;;;3.20;;
55989;SDS011;41875;55.806;38.082;2023-06-24T15:18:49;6.18;;;3.65;;
55989;SDS011;41875;55.806;38.082;2023-06-24T15:21:17;7.35;;;3.45;;
55989;SDS011;41875;55.806;38.082;2023-06-24T15:24:01;8.20;;;4.00;;
55989;SDS011;41875;55.806;38.082;2023-06-24T15:29:00;7.38;;;4.03;;
55989;SDS011;41875;55.806;38.082;2023-06-24T15:31:28;8.32;;;4.35;;
55989;SDS011;41875;55.806;38.082;2023-06-24T15:33:57;6.65;;;3.42;;
55989;SDS011;41875;55.806;38.082;2023-06-24T15:38:56;7.13;;;3.83;;
55989;SDS011;41875;55.806;38.082;2023-06-24T15:41:25;8.32;;;4.30;;